createdAt,value
2019-03-04T00:01:30.410Z,4.90
2019-03-04T00:04:01.044Z,4.60
2019-03-04T00:06:31.594Z,5.47
2019-03-04T00:09:02.160Z,5.73
2019-03-04T00:11:36.159Z,4.20
2019-03-04T00:14:07.695Z,5.27
2019-03-04T00:16:38.247Z,4.83
2019-03-04T00:19:09.104Z,4.60
2019-03-04T00:21:39.660Z,4.93
2019-03-04T00:24:10.217Z,4.57
2019-03-04T00:26:40.774Z,5.23
2019-03-04T00:29:11.352Z,5.20
2019-03-04T00:31:42.386Z,4.83
2019-03-04T00:34:13.059Z,5.90
2019-03-04T00:36:43.599Z,4.93
2019-03-04T00:39:14.146Z,5.13
2019-03-04T00:41:44.715Z,4.50
2019-03-04T00:44:15.289Z,4.40
2019-03-04T00:46:45.868Z,4.83
2019-03-04T00:49:16.415Z,4.80
2019-03-04T00:51:46.943Z,4.30
2019-03-04T00:54:17.483Z,4.17
2019-03-04T00:56:48.016Z,4.50
2019-03-04T00:59:18.556Z,4.47
2019-03-04T01:01:49.067Z,4.37
2019-03-04T01:04:19.626Z,4.10
2019-03-04T01:06:50.344Z,4.20
2019-03-04T01:09:20.904Z,4.87
2019-03-04T01:11:51.430Z,5.63
2019-03-04T01:14:21.923Z,5.10
2019-03-04T01:16:52.514Z,4.40
2019-03-04T01:19:23.053Z,4.60
2019-03-04T01:21:53.599Z,5.70
2019-03-04T01:24:24.248Z,5.10
2019-03-04T01:26:54.868Z,4.50
2019-03-04T01:29:25.408Z,5.33
2019-03-04T01:31:55.947Z,4.50
2019-03-04T01:34:26.755Z,4.70
2019-03-04T01:36:57.323Z,4.50
2019-03-04T01:39:27.868Z,5.30
2019-03-04T01:41:58.441Z,4.70
2019-03-04T01:44:29.007Z,4.80
2019-03-04T01:46:59.569Z,4.53
2019-03-04T01:49:30.095Z,4.93
2019-03-04T01:52:00.739Z,4.67
2019-03-04T01:54:31.307Z,4.83
2019-03-04T01:57:02.340Z,4.83
2019-03-04T01:59:33.359Z,4.40
2019-03-04T02:02:04.002Z,4.47
2019-03-04T02:04:34.530Z,5.17
2019-03-04T02:07:05.244Z,5.70
2019-03-04T02:09:35.866Z,5.37
2019-03-04T02:12:06.484Z,4.47
2019-03-04T02:14:37.560Z,4.70
2019-03-04T02:17:10.780Z,4.90
2019-03-04T02:19:41.295Z,4.73
2019-03-04T02:22:11.851Z,4.80
2019-03-04T02:24:42.475Z,4.73
2019-03-04T02:27:13.082Z,5.33
2019-03-04T02:29:43.628Z,5.43
2019-03-04T02:32:14.682Z,5.03
2019-03-04T02:34:45.223Z,4.93
2019-03-04T02:37:15.749Z,4.90
2019-03-04T02:39:46.297Z,4.77
2019-03-04T02:42:17.127Z,5.50
2019-03-04T02:44:47.894Z,4.23
2019-03-04T02:47:18.584Z,4.50
2019-03-04T02:49:49.167Z,4.03
2019-03-04T02:52:19.667Z,3.90
2019-03-04T02:54:50.209Z,4.37
2019-03-04T02:57:20.732Z,4.53
2019-03-04T02:59:51.281Z,4.13
2019-03-04T03:02:21.916Z,4.37
2019-03-04T03:04:53.512Z,4.17
2019-03-04T03:07:24.980Z,4.10
2019-03-04T03:09:55.890Z,4.10
2019-03-04T03:12:26.452Z,3.87
2019-03-04T03:14:57.112Z,3.93
2019-03-04T03:17:27.752Z,4.50
2019-03-04T03:20:02.051Z,3.90
2019-03-04T03:22:33.124Z,4.80
2019-03-04T03:25:03.837Z,3.55
2019-03-04T03:27:34.376Z,4.60
2019-03-04T03:30:06.491Z,3.83
2019-03-04T03:32:37.517Z,3.43
2019-03-04T03:35:09.293Z,3.35
2019-03-04T03:37:39.920Z,3.70
2019-03-04T03:40:12.433Z,3.57
2019-03-04T03:42:43.365Z,3.47
2019-03-04T03:45:14.455Z,3.20
2019-03-04T03:47:45.016Z,2.83
2019-03-04T03:50:15.814Z,3.03
2019-03-04T03:52:47.063Z,3.10
2019-03-04T03:55:18.315Z,3.37
2019-03-04T03:57:48.852Z,3.10
2019-03-04T04:00:20.076Z,2.50
2019-03-04T04:02:51.521Z,2.63
2019-03-04T04:05:22.082Z,2.50
2019-03-04T04:07:52.611Z,3.00
2019-03-04T04:10:23.581Z,2.73
2019-03-04T04:12:54.078Z,2.73
2019-03-04T04:15:24.642Z,2.17
2019-03-04T04:17:56.081Z,2.70
2019-03-04T04:20:26.584Z,2.63
2019-03-04T04:22:57.129Z,3.00
2019-03-04T04:25:27.673Z,3.07
2019-03-04T04:27:58.216Z,3.27
2019-03-04T04:30:29.809Z,3.37
2019-03-04T04:33:00.319Z,2.77
2019-03-04T04:35:30.841Z,3.23
2019-03-04T04:38:01.331Z,3.77
2019-03-04T04:40:31.882Z,3.50
2019-03-04T04:43:02.397Z,3.20
2019-03-04T04:45:32.903Z,3.43
2019-03-04T04:48:03.440Z,3.23
2019-03-04T04:50:34.008Z,2.90
2019-03-04T04:53:04.531Z,3.30
2019-03-04T04:55:35.052Z,3.77
2019-03-04T04:58:05.575Z,3.23
2019-03-04T05:00:36.089Z,3.50
2019-03-04T05:03:06.643Z,3.07
2019-03-04T05:05:37.150Z,2.87
2019-03-04T05:08:07.684Z,3.27
2019-03-04T05:10:38.621Z,3.53
2019-03-04T05:13:09.127Z,2.87
2019-03-04T05:15:39.664Z,3.57
2019-03-04T05:18:10.187Z,3.10
2019-03-04T05:20:41.138Z,2.70
2019-03-04T05:23:11.679Z,2.93
2019-03-04T05:25:42.263Z,3.40
2019-03-04T05:28:12.827Z,2.85
2019-03-04T05:30:43.425Z,3.33
2019-03-04T05:33:14.279Z,3.50
2019-03-04T05:35:44.921Z,2.87
2019-03-04T05:38:15.416Z,2.80
2019-03-04T05:40:46.335Z,2.50
2019-03-04T05:43:16.865Z,2.70
2019-03-04T05:45:47.395Z,2.07
2019-03-04T05:48:17.911Z,2.30
2019-03-04T05:50:48.459Z,1.97
2019-03-04T05:53:19.008Z,2.30
2019-03-04T05:55:49.564Z,2.20
2019-03-04T05:58:20.113Z,1.60
2019-03-04T06:01:11.191Z,1.60
2019-03-04T06:03:41.670Z,1.83
2019-03-04T06:06:12.251Z,2.20
2019-03-04T06:08:42.755Z,1.70
2019-03-04T06:11:13.672Z,1.80
2019-03-04T06:13:44.219Z,1.83
2019-03-04T06:16:15.384Z,1.63
2019-03-04T06:18:45.899Z,1.80
2019-03-04T06:21:16.417Z,1.67
2019-03-04T06:23:46.960Z,1.90
2019-03-04T06:26:17.483Z,2.03
2019-03-04T06:28:47.992Z,2.17
2019-03-04T06:31:18.515Z,2.20
2019-03-04T06:33:49.088Z,2.00
2019-03-04T06:36:19.810Z,2.00
2019-03-04T06:38:50.459Z,2.50
2019-03-04T06:41:20.980Z,1.80
2019-03-04T06:43:51.519Z,2.53
2019-03-04T06:46:22.049Z,2.67
2019-03-04T06:48:52.647Z,2.83
2019-03-04T06:51:33.179Z,3.13
2019-03-04T06:54:33.655Z,3.07
2019-03-04T06:57:28.371Z,2.77
2019-03-04T07:00:44.764Z,2.87
2019-03-04T07:03:25.167Z,3.73
2019-03-04T07:05:56.409Z,3.10
2019-03-04T07:09:08.684Z,4.30
2019-03-04T07:11:43.253Z,3.70
2019-03-04T07:14:13.798Z,3.63
2019-03-04T07:16:44.749Z,3.70
2019-03-04T07:19:23.342Z,3.70
2019-03-04T07:21:53.855Z,3.70
2019-03-04T07:24:24.351Z,3.80
2019-03-04T07:26:54.896Z,4.77
2019-03-04T07:29:25.419Z,3.90
2019-03-04T07:31:56.399Z,4.00
2019-03-04T07:34:26.919Z,4.30
2019-03-04T07:36:57.403Z,4.60
2019-03-04T07:39:28.426Z,4.60
2019-03-04T07:41:59.956Z,4.93
2019-03-04T07:44:30.975Z,4.53
2019-03-04T07:47:01.508Z,4.77
2019-03-04T07:49:32.038Z,4.77
2019-03-04T07:52:02.571Z,4.90
2019-03-04T07:54:33.088Z,5.50
2019-03-04T07:57:03.619Z,5.03
2019-03-04T07:59:34.150Z,6.10
2019-03-04T08:02:06.520Z,5.90
2019-03-04T08:04:37.035Z,5.80
2019-03-04T08:07:42.145Z,6.53
2019-03-04T08:10:34.151Z,6.80
2019-03-04T08:13:18.027Z,6.53
2019-03-04T08:15:51.935Z,6.77
2019-03-04T08:18:22.493Z,7.10
2019-03-04T08:20:53.038Z,7.70
2019-03-04T08:23:23.580Z,8.50
2019-03-04T08:25:54.083Z,8.67
2019-03-04T08:28:24.611Z,9.17
2019-03-04T08:30:58.271Z,10.73
2019-03-04T08:33:28.784Z,10.27
2019-03-04T08:35:59.354Z,12.00
2019-03-04T08:38:29.926Z,11.93
2019-03-04T08:41:00.979Z,12.03
2019-03-04T08:43:36.501Z,12.50
2019-03-04T08:46:07.051Z,12.63
2019-03-04T08:48:37.622Z,12.30
2019-03-04T08:51:08.161Z,11.83
2019-03-04T08:53:38.754Z,12.53
2019-03-04T08:56:09.281Z,11.95
2019-03-04T08:58:39.809Z,11.83
2019-03-04T09:01:10.443Z,14.30
2019-03-04T09:03:40.996Z,13.00
2019-03-04T09:06:11.495Z,13.67
2019-03-04T09:08:42.392Z,13.87
2019-03-04T09:11:12.953Z,14.17
2019-03-04T09:13:44.531Z,14.23
2019-03-04T09:16:15.060Z,14.07
2019-03-04T09:18:45.603Z,14.37
2019-03-04T09:21:16.160Z,13.80
2019-03-04T09:23:46.708Z,14.30
2019-03-04T09:26:17.225Z,14.63
2019-03-04T09:28:48.109Z,14.60
2019-03-04T09:31:18.686Z,14.27
2019-03-04T09:33:49.204Z,14.00
2019-03-04T09:36:19.767Z,14.27
2019-03-04T09:38:50.718Z,14.30
2019-03-04T09:41:21.251Z,14.87
2019-03-04T09:43:51.880Z,15.33
2019-03-04T09:46:22.469Z,15.33
2019-03-04T09:48:53.343Z,15.33
2019-03-04T09:51:24.745Z,14.93
2019-03-04T09:53:55.332Z,15.07
2019-03-04T09:56:25.898Z,15.50
2019-03-04T09:58:56.775Z,15.73
2019-03-04T10:01:32.198Z,16.03
2019-03-04T10:04:41.381Z,16.67
2019-03-04T10:07:45.831Z,15.83
2019-03-04T10:10:54.655Z,17.20
2019-03-04T10:14:09.792Z,15.53
2019-03-04T10:17:27.579Z,14.57
2019-03-04T10:20:31.034Z,15.17
2019-03-04T10:23:38.252Z,14.30
2019-03-04T10:26:28.844Z,15.43
2019-03-04T10:29:40.832Z,14.40
2019-03-04T10:32:38.351Z,14.03
2019-03-04T10:35:31.011Z,13.95
2019-03-04T10:38:26.936Z,12.80
2019-03-04T10:41:10.749Z,11.23
2019-03-04T10:44:18.314Z,11.83
2019-03-04T10:47:17.910Z,10.17
2019-03-04T10:49:48.547Z,10.20
2019-03-04T10:52:20.247Z,10.00
2019-03-04T10:54:50.808Z,10.13
2019-03-04T10:57:21.384Z,9.53
2019-03-04T10:59:51.892Z,10.30
2019-03-04T11:02:22.399Z,10.10
2019-03-04T11:04:52.948Z,9.20
2019-03-04T11:07:23.459Z,9.83
2019-03-04T11:09:54.019Z,8.43
2019-03-04T11:12:24.565Z,9.30
2019-03-04T11:14:56.483Z,8.20
2019-03-04T11:17:27.012Z,8.43
2019-03-04T11:19:57.943Z,8.00
2019-03-04T11:22:28.481Z,7.90
2019-03-04T11:24:59.024Z,8.03
2019-03-04T11:27:29.521Z,7.33
2019-03-04T11:30:00.088Z,7.80
2019-03-04T11:32:30.616Z,7.50
2019-03-04T11:35:01.584Z,7.17
2019-03-04T11:37:32.980Z,7.37
2019-03-04T11:40:06.459Z,7.43
2019-03-04T11:42:36.939Z,6.87
2019-03-04T11:45:10.637Z,7.07
2019-03-04T11:47:41.172Z,7.03
2019-03-04T11:50:13.979Z,6.67
2019-03-04T11:52:44.551Z,6.90
2019-03-04T11:55:15.088Z,7.13
2019-03-04T11:57:45.615Z,6.20
2019-03-04T12:00:20.542Z,6.50
2019-03-04T12:02:51.149Z,7.40
2019-03-04T12:05:21.652Z,6.43
2019-03-04T12:07:52.184Z,6.20
2019-03-04T12:10:23.197Z,6.00
2019-03-04T12:12:53.783Z,5.60
2019-03-04T12:15:24.331Z,5.10
2019-03-04T12:17:55.500Z,6.03
2019-03-04T12:20:26.624Z,5.63
2019-03-04T12:22:57.729Z,5.67
2019-03-04T12:25:28.287Z,5.70
2019-03-04T12:27:59.115Z,5.20
2019-03-04T12:30:29.777Z,5.40
2019-03-04T12:33:00.387Z,4.97
2019-03-04T12:35:30.991Z,5.57
2019-03-04T12:38:01.547Z,5.47
2019-03-04T12:40:32.095Z,6.63
2019-03-04T12:43:02.632Z,7.20
2019-03-04T12:45:44.827Z,8.17
2019-03-04T12:48:15.396Z,7.50
2019-03-04T12:50:45.933Z,7.50
2019-03-04T12:53:16.455Z,8.27
2019-03-04T12:55:46.984Z,9.40
2019-03-04T12:58:17.545Z,9.30
2019-03-04T13:00:48.069Z,9.80
2019-03-04T13:03:20.931Z,10.00
2019-03-04T13:05:51.475Z,10.03
2019-03-04T13:08:22.034Z,10.47
2019-03-04T13:10:52.555Z,10.07
2019-03-04T13:13:23.087Z,8.90
2019-03-04T13:15:55.163Z,9.23
2019-03-04T13:18:25.701Z,8.87
2019-03-04T13:20:56.212Z,8.43
2019-03-04T13:23:26.740Z,9.30
2019-03-04T13:25:57.574Z,9.58
2019-03-04T13:28:28.107Z,9.97
2019-03-04T13:30:58.691Z,9.70
2019-03-04T13:33:29.271Z,9.00
2019-03-04T13:35:59.846Z,8.57
2019-03-04T13:38:30.396Z,8.63
2019-03-04T13:41:00.942Z,8.63
2019-03-04T13:43:31.474Z,8.80
2019-03-04T13:46:03.384Z,8.13
2019-03-04T13:48:33.951Z,9.10
2019-03-04T13:51:04.483Z,8.20
2019-03-04T13:53:35.086Z,8.70
2019-03-04T13:56:05.611Z,8.37
2019-03-04T13:58:36.112Z,8.63
2019-03-04T14:01:07.577Z,7.97
2019-03-04T14:03:38.106Z,7.70
2019-03-04T14:06:08.618Z,7.77
2019-03-04T14:08:41.067Z,7.30
2019-03-04T14:11:13.016Z,6.33
2019-03-04T14:13:43.553Z,7.07
2019-03-04T14:16:15.065Z,6.73
2019-03-04T14:18:45.567Z,7.77
2019-03-04T14:21:16.305Z,7.73
2019-03-04T14:23:46.832Z,7.67
2019-03-04T14:26:17.431Z,6.90
2019-03-04T14:28:47.944Z,7.07
2019-03-04T14:31:18.516Z,7.30
2019-03-04T14:33:49.044Z,8.10
2019-03-04T14:36:19.811Z,8.13
2019-03-04T14:38:50.340Z,8.37
2019-03-04T14:41:20.843Z,8.47
2019-03-04T14:43:51.375Z,7.50
2019-03-04T14:46:24.979Z,8.00
2019-03-04T14:48:55.552Z,7.90
2019-03-04T14:51:26.067Z,7.20
2019-03-04T14:53:57.547Z,6.50
2019-03-04T14:56:28.073Z,6.50
2019-03-04T14:59:10.196Z,4.50
2019-03-04T15:01:30.775Z,5.53
2019-03-04T15:04:01.287Z,4.87
2019-03-04T15:06:31.889Z,4.83
2019-03-04T15:09:02.356Z,3.10
2019-03-04T15:11:32.887Z,2.97
2019-03-04T15:14:03.458Z,1.80
2019-03-04T15:16:33.984Z,1.27
2019-03-04T15:19:04.534Z,1.07
2019-03-04T15:21:35.107Z,0.90
2019-03-04T15:24:05.843Z,0.73
2019-03-04T15:26:43.632Z,0.80
2019-03-04T15:29:08.554Z,0.97
2019-03-04T15:31:39.105Z,0.83
2019-03-04T15:34:09.704Z,0.90
2019-03-04T15:36:42.453Z,1.07
2019-03-04T15:39:22.920Z,0.70
2019-03-04T15:41:50.275Z,0.70
2019-03-04T15:44:20.988Z,0.60
2019-03-04T15:46:51.510Z,0.77
2019-03-04T15:49:22.071Z,0.80
2019-03-04T15:51:52.820Z,0.90
2019-03-04T15:54:23.400Z,0.70
2019-03-04T15:56:54.436Z,0.80
2019-03-04T15:59:24.943Z,0.83
2019-03-04T16:01:55.807Z,0.70
2019-03-04T16:04:28.479Z,0.67
2019-03-04T16:06:59.052Z,0.87
2019-03-04T16:09:30.176Z,0.83
2019-03-04T16:12:00.792Z,0.70
2019-03-04T16:14:32.031Z,0.73
2019-03-04T16:17:02.581Z,0.90
2019-03-04T16:19:33.110Z,0.90
2019-03-04T16:22:03.769Z,1.03
2019-03-04T16:24:34.296Z,1.13
2019-03-04T16:27:13.030Z,0.90
2019-03-04T16:29:43.575Z,1.13
2019-03-04T16:32:14.129Z,0.98
2019-03-04T16:34:44.668Z,1.10
2019-03-04T16:37:15.218Z,1.53
2019-03-04T16:39:48.297Z,1.33
2019-03-04T16:42:19.519Z,1.33
2019-03-04T16:44:50.042Z,1.80
2019-03-04T16:47:20.599Z,1.30
2019-03-04T16:49:51.133Z,1.60
2019-03-04T16:52:24.147Z,1.73
2019-03-04T16:54:54.747Z,1.80
2019-03-04T16:57:25.276Z,1.60
2019-03-04T16:59:55.801Z,1.67
2019-03-04T17:02:26.840Z,1.70
2019-03-04T17:04:58.259Z,1.63
2019-03-04T17:07:32.179Z,1.70
2019-03-04T17:10:03.728Z,2.00
2019-03-04T17:12:34.237Z,2.00
2019-03-04T17:15:05.677Z,2.72
2019-03-04T17:17:36.284Z,1.90
2019-03-04T17:20:07.830Z,1.80
2019-03-04T17:22:38.348Z,1.80
2019-03-04T17:25:09.379Z,1.70
2019-03-04T17:27:41.487Z,1.80
2019-03-04T17:30:13.827Z,1.60
2019-03-04T17:32:44.408Z,1.77
2019-03-04T17:35:17.863Z,1.80
2019-03-04T17:37:48.844Z,1.27
2019-03-04T17:40:19.552Z,1.60
2019-03-04T17:42:50.089Z,1.77
2019-03-04T17:45:20.931Z,2.70
2019-03-04T17:47:51.472Z,1.83
2019-03-04T17:50:33.228Z,0.87
2019-03-04T17:53:04.971Z,0.70
2019-03-04T17:55:35.550Z,0.60
2019-03-04T17:58:06.121Z,0.68
2019-03-04T18:00:39.159Z,0.70
2019-03-04T18:03:09.702Z,0.60
2019-03-04T18:05:40.264Z,0.60
2019-03-04T18:08:10.776Z,0.50
2019-03-04T18:10:42.146Z,1.07
2019-03-04T18:13:12.858Z,0.70
2019-03-04T18:15:43.395Z,0.60
2019-03-04T18:18:14.364Z,0.73
2019-03-04T18:20:45.158Z,0.80
2019-03-04T18:23:15.732Z,0.80
2019-03-04T18:25:49.697Z,0.67
2019-03-04T18:28:33.631Z,0.60
2019-03-04T18:31:36.935Z,0.60
2019-03-04T18:34:44.419Z,0.60
2019-03-04T18:37:30.149Z,0.50
2019-03-04T18:40:47.794Z,0.50
2019-03-04T18:43:56.621Z,0.60
2019-03-04T18:47:12.107Z,0.70
2019-03-04T18:50:01.700Z,1.00
2019-03-04T18:52:34.500Z,1.20
2019-03-04T18:55:05.551Z,0.90
2019-03-04T18:57:36.393Z,2.17
2019-03-04T19:00:12.347Z,1.13
2019-03-04T19:02:43.583Z,1.50
2019-03-04T19:05:14.217Z,1.00
2019-03-04T19:07:44.730Z,1.20
2019-03-04T19:10:15.374Z,0.83
2019-03-04T19:12:45.871Z,0.80
2019-03-04T19:15:16.750Z,0.70
2019-03-04T19:17:47.257Z,1.00
2019-03-04T19:20:17.860Z,1.03
2019-03-04T19:22:48.361Z,1.10
2019-03-04T19:25:19.471Z,1.47
2019-03-04T19:27:49.962Z,1.20
2019-03-04T19:30:20.516Z,1.37
2019-03-04T19:32:51.038Z,1.57
2019-03-04T19:35:21.558Z,1.50
2019-03-04T19:37:55.538Z,1.40
2019-03-04T19:40:26.568Z,2.30
2019-03-04T19:42:57.190Z,2.30
2019-03-04T19:45:27.672Z,2.07
2019-03-04T19:47:58.688Z,1.87
2019-03-04T19:50:29.348Z,2.00
2019-03-04T19:52:59.855Z,2.20
2019-03-04T19:55:30.372Z,2.30
2019-03-04T19:58:00.949Z,2.43
2019-03-04T20:00:32.500Z,2.70
2019-03-04T20:03:03.119Z,3.17
2019-03-04T20:05:34.224Z,2.97
2019-03-04T20:08:05.067Z,2.67
2019-03-04T20:10:35.605Z,2.50
2019-03-04T20:13:06.169Z,2.90
2019-03-04T20:15:36.743Z,2.87
2019-03-04T20:18:10.378Z,2.90
2019-03-04T20:20:41.948Z,2.50
2019-03-04T20:23:12.571Z,2.93
2019-03-04T20:25:43.080Z,2.87
2019-03-04T20:28:13.603Z,3.30
2019-03-04T20:30:44.176Z,4.60
2019-03-04T20:33:14.715Z,3.13
2019-03-04T20:35:45.367Z,3.37
2019-03-04T20:38:16.035Z,3.20
2019-03-04T20:41:05.754Z,3.27
2019-03-04T20:43:36.288Z,2.93
2019-03-04T20:46:06.834Z,3.17
2019-03-04T20:48:37.402Z,2.87
2019-03-04T20:51:07.949Z,3.03
2019-03-04T20:53:38.806Z,3.30
2019-03-04T20:56:09.361Z,3.13
2019-03-04T20:58:39.965Z,3.27
2019-03-04T21:01:10.546Z,3.17
2019-03-04T21:03:41.089Z,2.87
2019-03-04T21:06:11.637Z,3.00
2019-03-04T21:08:42.544Z,3.07
2019-03-04T21:11:13.153Z,2.50
2019-03-04T21:13:45.464Z,2.60
2019-03-04T21:16:20.561Z,2.60
2019-03-04T21:18:53.347Z,2.87
2019-03-04T21:21:24.028Z,2.90
2019-03-04T21:23:54.595Z,3.20
2019-03-04T21:26:54.407Z,3.40
2019-03-04T21:29:48.097Z,3.17
2019-03-04T21:33:08.648Z,3.07
2019-03-04T21:36:16.041Z,2.87
2019-03-04T21:38:46.789Z,3.40
2019-03-04T21:41:50.962Z,3.02
2019-03-04T21:45:06.764Z,3.00
2019-03-04T21:47:44.513Z,3.30
2019-03-04T21:50:19.131Z,2.98
2019-03-04T21:53:21.533Z,3.53
2019-03-04T21:56:39.015Z,3.10
2019-03-04T21:59:09.672Z,3.43
2019-03-04T22:01:51.140Z,3.80
2019-03-04T22:04:21.709Z,2.77
2019-03-04T22:06:52.399Z,2.93
2019-03-04T22:09:23.044Z,3.73
2019-03-04T22:11:53.532Z,3.10
2019-03-04T22:14:24.108Z,3.50
2019-03-04T22:16:54.635Z,3.70
2019-03-04T22:19:25.187Z,3.73
2019-03-04T22:21:56.139Z,3.40
2019-03-04T22:24:27.507Z,3.40
2019-03-04T22:26:58.098Z,3.77
2019-03-04T22:29:28.677Z,3.65
2019-03-04T22:31:59.375Z,3.80
2019-03-04T22:34:29.926Z,3.27
2019-03-04T22:37:00.487Z,3.23
2019-03-04T22:39:31.402Z,3.47
2019-03-04T22:42:01.944Z,3.37
2019-03-04T22:44:32.478Z,3.70
2019-03-04T22:47:03.021Z,3.43
2019-03-04T22:49:34.167Z,3.70
2019-03-04T22:52:04.704Z,3.27
2019-03-04T22:54:35.241Z,3.67
2019-03-04T22:57:06.258Z,3.60
2019-03-04T22:59:36.828Z,3.47
2019-03-04T23:02:08.394Z,3.50
2019-03-04T23:05:00.486Z,3.53
2019-03-04T23:07:52.739Z,3.47
2019-03-04T23:10:43.718Z,3.43
2019-03-04T23:13:41.080Z,4.10
2019-03-04T23:16:14.226Z,4.00
2019-03-04T23:18:44.723Z,3.80
2019-03-04T23:21:15.597Z,3.00
2019-03-04T23:23:46.161Z,3.77
2019-03-04T23:26:16.696Z,3.70
2019-03-04T23:28:48.411Z,3.60
2019-03-04T23:31:19.100Z,3.73
2019-03-04T23:33:49.672Z,3.73
2019-03-04T23:36:20.182Z,3.60
2019-03-04T23:38:50.735Z,3.30
2019-03-04T23:41:21.319Z,3.50
2019-03-04T23:43:51.856Z,3.63
2019-03-04T23:46:22.401Z,4.17
2019-03-04T23:49:15.077Z,4.07
2019-03-04T23:51:45.129Z,3.70
2019-03-04T23:54:16.264Z,3.63
2019-03-04T23:56:46.795Z,3.33
2019-03-04T23:59:17.407Z,3.70
